Time;durP1;ratioP1;P1;durP2;ratioP2;P2;SDS_P1;SDS_P2;PMS_P1;PMS_P2;Temp;Humidity;BMP_temperature;BMP_pressure;BME280_temperature;BME280_humidity;BME280_pressure;Samples;Min_cycle;Max_cycle;Signal;HPM_P1;HPM_P2
2023/11/17 00:01:33;;;;;;;0.70;0.70;;;7.50;99.90;;;;;;5062529;28;20434;-58
2023/11/17 00:03:59;;;;;;;0.70;0.70;;;7.50;99.90;;;;;;5063254;28;20515;-58
2023/11/17 00:06:25;;;;;;;0.67;0.67;;;7.40;99.90;;;;;;5067325;28;20461;-59
2023/11/17 00:08:52;;;;;;;3.87;0.70;;;7.50;99.90;;;;;;5065385;28;20437;-58
2023/11/17 00:11:17;;;;;;;0.70;0.70;;;7.40;99.90;;;;;;5065583;28;20428;-58
2023/11/17 00:13:43;;;;;;;0.60;0.60;;;7.30;99.90;;;;;;5059759;28;20477;-59
2023/11/17 00:16:09;;;;;;;0.70;0.70;;;7.20;99.90;;;;;;5066798;28;20981;-58
2023/11/17 00:18:36;;;;;;;0.60;0.60;;;7.10;99.90;;;;;;5067592;28;20210;-58
2023/11/17 00:21:06;;;;;;;0.80;0.60;;;7.00;99.90;;;;;;5066865;28;20217;-61
2023/11/17 00:23:32;;;;;;;0.70;0.70;;;6.90;99.90;;;;;;5068620;28;20408;-58
2023/11/17 00:25:57;;;;;;;0.60;0.60;;;6.80;99.90;;;;;;5064346;28;20499;-57
2023/11/17 00:28:24;;;;;;;0.60;0.60;;;6.80;99.90;;;;;;5067401;28;20472;-58
2023/11/17 00:30:50;;;;;;;3.70;0.70;;;6.70;99.90;;;;;;5063203;28;20186;-58
2023/11/17 00:33:16;;;;;;;0.70;0.60;;;6.60;99.90;;;;;;5064296;28;21051;-58
2023/11/17 00:35:45;;;;;;;0.70;0.70;;;6.50;99.90;;;;;;5068252;28;20409;-59
2023/11/17 00:38:11;;;;;;;0.60;0.60;;;6.50;99.90;;;;;;5063158;28;20552;-58
2023/11/17 00:40:36;;;;;;;0.70;0.70;;;6.40;99.90;;;;;;5055708;28;20504;-58
2023/11/17 00:43:03;;;;;;;0.60;0.60;;;6.40;99.90;;;;;;5065267;28;20174;-58
2023/11/17 00:45:32;;;;;;;0.70;0.70;;;6.30;99.90;;;;;;5057987;28;20271;-58
2023/11/17 00:47:58;;;;;;;0.80;0.80;;;6.30;99.90;;;;;;5059510;28;20460;-57
2023/11/17 00:50:24;;;;;;;0.70;0.70;;;6.30;99.90;;;;;;5058305;28;20489;-59
2023/11/17 00:52:49;;;;;;;0.60;0.60;;;6.20;99.90;;;;;;5068186;28;21067;-57
2023/11/17 00:55:15;;;;;;;0.60;0.60;;;6.10;99.90;;;;;;5066504;28;20181;-60
2023/11/17 00:57:42;;;;;;;0.70;0.70;;;6.10;99.90;;;;;;5065634;28;20938;-58
2023/11/17 01:00:09;;;;;;;0.60;0.60;;;6.10;99.90;;;;;;5059547;28;20520;-58
2023/11/17 01:02:34;;;;;;;0.70;0.60;;;6.00;99.90;;;;;;5064629;28;21034;-58
2023/11/17 01:05:00;;;;;;;0.80;0.80;;;6.00;99.90;;;;;;5061191;28;20404;-58
2023/11/17 01:07:26;;;;;;;0.70;0.70;;;6.00;99.90;;;;;;5067309;28;20812;-60
2023/11/17 01:09:51;;;;;;;0.70;0.70;;;5.90;99.90;;;;;;5059124;28;20178;-57
2023/11/17 01:12:17;;;;;;;0.70;0.70;;;5.90;99.90;;;;;;5064203;28;20215;-58
2023/11/17 01:14:42;;;;;;;0.70;0.70;;;5.80;99.90;;;;;;5063051;28;20277;-59
2023/11/17 01:17:11;;;;;;;0.60;0.60;;;5.80;99.90;;;;;;5064867;28;20284;-59
2023/11/17 01:19:36;;;;;;;0.70;0.70;;;5.70;99.90;;;;;;5066132;28;20175;-58
2023/11/17 01:22:03;;;;;;;0.60;0.60;;;5.70;99.90;;;;;;5064990;28;20800;-58
2023/11/17 01:24:28;;;;;;;0.67;0.67;;;5.70;99.90;;;;;;5058744;28;20203;-59
2023/11/17 01:26:54;;;;;;;0.70;0.70;;;5.70;99.90;;;;;;5063004;28;20468;-57
2023/11/17 01:29:20;;;;;;;0.70;0.70;;;5.60;99.90;;;;;;5062512;28;20262;-59
2023/11/17 01:31:45;;;;;;;0.50;0.50;;;5.60;99.90;;;;;;5067019;28;20629;-59
2023/11/17 01:34:12;;;;;;;0.63;0.63;;;5.60;99.90;;;;;;5065236;28;20224;-59
2023/11/17 01:36:38;;;;;;;0.80;0.70;;;5.60;99.90;;;;;;5058374;28;20641;-59
2023/11/17 01:39:04;;;;;;;0.70;0.70;;;5.60;99.90;;;;;;5059348;28;20539;-58
2023/11/17 01:41:30;;;;;;;0.60;0.60;;;5.50;99.90;;;;;;5058617;28;20645;-59
2023/11/17 01:43:57;;;;;;;0.60;0.60;;;5.50;99.90;;;;;;5066244;28;20182;-59
2023/11/17 01:46:24;;;;;;;1.07;0.80;;;5.50;99.90;;;;;;5064629;28;20477;-58
2023/11/17 01:48:49;;;;;;;0.80;0.70;;;5.50;99.90;;;;;;5060821;28;20448;-58
2023/11/17 01:51:15;;;;;;;0.80;0.80;;;5.50;99.90;;;;;;5061663;28;20488;-59
2023/11/17 01:53:41;;;;;;;0.80;0.70;;;5.50;99.90;;;;;;5061155;28;20202;-59
2023/11/17 01:56:07;;;;;;;0.70;0.70;;;5.50;99.90;;;;;;5064357;28;20216;-58
2023/11/17 01:58:33;;;;;;;0.90;0.70;;;5.50;99.90;;;;;;5059073;28;21014;-58
2023/11/17 02:01:01;;;;;;;0.60;0.60;;;5.50;99.90;;;;;;5059492;28;20189;-60
2023/11/17 02:03:27;;;;;;;0.60;0.60;;;5.50;99.90;;;;;;5066477;28;20171;-59
2023/11/17 02:06:05;;;;;;;0.70;0.70;;;5.40;99.90;;;;;;5065464;28;20455;-59
2023/11/17 02:09:21;;;;;;;0.67;0.67;;;5.40;99.90;;;;;;5058783;28;20515;-58
2023/11/17 02:11:58;;;;;;;2.73;0.60;;;5.40;99.90;;;;;;5060700;28;20448;-59
2023/11/17 02:14:30;;;;;;;0.70;0.70;;;5.40;99.90;;;;;;5066099;28;20428;-59
2023/11/17 02:17:00;;;;;;;0.67;0.67;;;5.30;99.90;;;;;;5061877;28;20480;-59
2023/11/17 02:19:38;;;;;;;0.70;0.70;;;5.30;99.90;;;;;;5055802;28;20528;-59
2023/11/17 02:22:12;;;;;;;0.70;0.70;;;5.30;99.90;;;;;;5063440;28;20455;-58
2023/11/17 02:25:10;;;;;;;0.70;0.70;;;5.30;99.90;;;;;;5059289;28;20419;-59
2023/11/17 02:28:10;;;;;;;0.70;0.70;;;5.20;99.90;;;;;;5058272;28;20472;-60
2023/11/17 02:30:39;;;;;;;0.70;0.70;;;5.20;99.90;;;;;;5062931;28;20416;-58
2023/11/17 02:33:07;;;;;;;0.60;0.60;;;5.20;99.90;;;;;;5065261;28;20496;-59
2023/11/17 02:35:34;;;;;;;0.70;0.70;;;5.20;99.90;;;;;;5064864;28;20429;-59
2023/11/17 02:38:01;;;;;;;0.60;0.60;;;5.10;99.90;;;;;;5059104;28;20449;-58
2023/11/17 02:40:32;;;;;;;0.70;0.70;;;5.10;99.90;;;;;;5060789;28;20423;-59
2023/11/17 02:43:07;;;;;;;0.70;0.70;;;5.10;99.90;;;;;;5060587;28;20421;-57
2023/11/17 02:45:38;;;;;;;0.70;0.70;;;5.10;99.90;;;;;;5060577;28;20505;-59
2023/11/17 02:48:04;;;;;;;0.70;0.70;;;5.00;99.90;;;;;;5058231;28;20563;-59
2023/11/17 02:50:51;;;;;;;0.60;0.60;;;5.00;99.90;;;;;;5060780;28;20433;-60
2023/11/17 02:53:23;;;;;;;0.60;0.60;;;5.00;99.90;;;;;;5057798;28;20953;-57
2023/11/17 02:55:57;;;;;;;0.60;0.60;;;5.00;99.90;;;;;;5060900;28;20429;-58
2023/11/17 02:58:24;;;;;;;0.60;0.60;;;5.00;99.90;;;;;;5057484;28;20581;-59
2023/11/17 03:00:51;;;;;;;0.67;0.67;;;4.90;99.90;;;;;;5058230;28;20432;-59
2023/11/17 03:03:24;;;;;;;0.70;0.70;;;4.90;99.90;;;;;;5059274;28;20482;-59
2023/11/17 03:05:59;;;;;;;0.70;0.70;;;4.90;99.90;;;;;;5061045;28;20507;-58
2023/11/17 03:08:25;;;;;;;0.70;0.70;;;4.80;99.90;;;;;;5068647;28;20452;-59
2023/11/17 03:10:53;;;;;;;0.70;0.70;;;4.80;99.90;;;;;;5060629;28;20425;-59
2023/11/17 03:13:18;;;;;;;0.70;0.70;;;4.80;99.90;;;;;;5063714;28;20427;-59
2023/11/17 03:15:44;;;;;;;0.70;0.70;;;4.80;99.90;;;;;;5062298;28;20436;-59
2023/11/17 03:18:10;;;;;;;0.70;0.70;;;4.80;99.90;;;;;;5058166;28;20198;-60
2023/11/17 03:20:36;;;;;;;0.67;0.67;;;4.80;99.90;;;;;;5061563;28;20185;-59
2023/11/17 03:23:01;;;;;;;0.70;0.70;;;4.80;99.90;;;;;;5059536;28;20182;-58
2023/11/17 03:25:27;;;;;;;1.57;0.90;;;4.80;99.90;;;;;;5060452;28;20428;-59
2023/11/17 03:27:53;;;;;;;0.60;0.60;;;4.80;99.90;;;;;;5060882;28;20682;-59
2023/11/17 03:30:18;;;;;;;0.70;0.70;;;4.80;99.90;;;;;;5063615;28;20189;-57
2023/11/17 03:32:45;;;;;;;0.70;0.70;;;4.80;99.90;;;;;;5056694;28;20659;-58
2023/11/17 03:35:11;;;;;;;0.67;0.67;;;4.90;99.90;;;;;;5060962;28;20203;-59
2023/11/17 03:37:38;;;;;;;0.77;0.77;;;4.90;99.90;;;;;;5058669;28;20436;-58
2023/11/17 03:40:11;;;;;;;0.70;0.70;;;4.90;99.90;;;;;;5059531;28;20268;-58
2023/11/17 03:42:37;;;;;;;0.70;0.70;;;4.80;99.90;;;;;;5064954;28;20535;-59
2023/11/17 03:45:07;;;;;;;0.67;0.67;;;4.80;99.90;;;;;;5066628;28;20417;-58
2023/11/17 03:47:36;;;;;;;0.80;0.80;;;4.80;99.90;;;;;;5065866;28;20456;-58
2023/11/17 03:50:03;;;;;;;0.70;0.70;;;4.80;99.90;;;;;;5062461;28;20431;-59
2023/11/17 03:52:32;;;;;;;0.70;0.70;;;4.80;99.90;;;;;;5061865;28;20474;-58
2023/11/17 03:55:00;;;;;;;0.70;0.70;;;4.80;99.90;;;;;;5057911;28;20429;-58
2023/11/17 03:57:26;;;;;;;0.60;0.60;;;4.80;99.90;;;;;;5066210;28;20651;-58
2023/11/17 03:59:53;;;;;;;0.70;0.70;;;4.80;99.90;;;;;;5061140;28;20503;-59
2023/11/17 04:02:22;;;;;;;0.70;0.70;;;4.70;99.90;;;;;;5057370;28;20432;-59
2023/11/17 04:04:50;;;;;;;0.70;0.70;;;4.70;99.90;;;;;;5059922;28;20436;-60
2023/11/17 04:07:16;;;;;;;0.60;0.60;;;4.70;99.90;;;;;;5056732;28;21223;-59
2023/11/17 04:09:41;;;;;;;0.90;0.70;;;4.70;99.90;;;;;;5066453;28;20420;-60
2023/11/17 04:12:09;;;;;;;0.70;0.60;;;4.70;99.90;;;;;;5064244;28;20159;-61
2023/11/17 04:14:42;;;;;;;0.70;0.70;;;4.70;99.90;;;;;;5066083;28;20170;-59
2023/11/17 04:17:08;;;;;;;0.70;0.70;;;4.60;99.90;;;;;;5069299;28;20424;-60
2023/11/17 04:19:34;;;;;;;0.90;0.90;;;4.60;99.90;;;;;;5068108;28;20416;-59
2023/11/17 04:22:01;;;;;;;0.70;0.70;;;4.60;99.90;;;;;;5066735;28;20522;-59
2023/11/17 04:24:28;;;;;;;0.60;0.60;;;4.60;99.90;;;;;;5063772;28;20440;-60
2023/11/17 04:26:56;;;;;;;0.70;0.70;;;4.60;99.90;;;;;;5064910;28;20191;-60
2023/11/17 04:29:21;;;;;;;0.60;0.60;;;4.50;99.90;;;;;;5059182;28;20486;-59
2023/11/17 04:31:48;;;;;;;0.70;0.70;;;4.50;99.90;;;;;;5065593;28;20812;-60
2023/11/17 04:34:14;;;;;;;0.70;0.70;;;4.50;99.90;;;;;;5060708;28;20573;-60
2023/11/17 04:36:40;;;;;;;0.70;0.70;;;4.50;99.90;;;;;;5063789;28;20569;-59
2023/11/17 04:39:11;;;;;;;0.70;0.70;;;4.50;99.90;;;;;;5058169;28;20535;-60
2023/11/17 04:41:37;;;;;;;0.77;0.77;;;4.50;99.90;;;;;;5059220;28;20174;-59
2023/11/17 04:44:06;;;;;;;0.70;0.70;;;4.50;99.90;;;;;;5063594;28;20400;-59
2023/11/17 04:46:32;;;;;;;1.53;0.83;;;4.50;99.90;;;;;;5061783;28;20491;-59
2023/11/17 04:48:57;;;;;;;0.83;0.73;;;4.50;99.90;;;;;;5061833;28;21054;-60
2023/11/17 04:51:23;;;;;;;0.70;0.70;;;4.40;99.90;;;;;;5067287;28;20228;-60
2023/11/17 04:53:48;;;;;;;0.70;0.70;;;4.40;99.90;;;;;;5066650;28;20233;-60
2023/11/17 04:56:14;;;;;;;0.70;0.70;;;4.40;99.90;;;;;;5064876;28;20204;-59
2023/11/17 04:58:40;;;;;;;0.70;0.70;;;4.40;99.90;;;;;;5060505;28;20202;-60
2023/11/17 05:01:06;;;;;;;1.13;0.70;;;4.40;99.90;;;;;;5065209;28;20687;-56
2023/11/17 05:03:31;;;;;;;1.47;0.80;;;4.40;99.90;;;;;;5065779;28;20217;-59
2023/11/17 05:05:57;;;;;;;1.73;0.70;;;4.40;99.90;;;;;;5065200;28;20400;-55
2023/11/17 05:08:22;;;;;;;0.60;0.60;;;4.40;99.90;;;;;;5061768;28;20696;-59
2023/11/17 05:10:48;;;;;;;0.70;0.70;;;4.40;99.90;;;;;;5056583;28;20185;-59
2023/11/17 05:13:14;;;;;;;0.70;0.70;;;4.40;99.90;;;;;;5055645;28;20622;-61
2023/11/17 05:15:43;;;;;;;0.73;0.73;;;4.40;99.90;;;;;;5057603;28;20243;-60
2023/11/17 05:18:09;;;;;;;0.80;0.80;;;4.40;99.90;;;;;;5056086;28;20213;-63
2023/11/17 05:20:35;;;;;;;0.60;0.60;;;4.50;99.90;;;;;;5053546;28;20790;-61
2023/11/17 05:23:01;;;;;;;0.80;0.80;;;4.40;99.90;;;;;;5044973;28;20186;-60
2023/11/17 05:25:27;;;;;;;0.70;0.70;;;4.40;99.90;;;;;;5059102;28;20186;-56
2023/11/17 05:27:53;;;;;;;0.80;0.80;;;4.40;99.90;;;;;;5053515;28;20543;-56
2023/11/17 05:30:19;;;;;;;1.63;1.00;;;4.40;99.90;;;;;;5055258;28;22568;-59
2023/11/17 05:32:46;;;;;;;1.37;1.27;;;4.40;99.90;;;;;;5058066;28;20181;-55
2023/11/17 05:35:11;;;;;;;0.80;0.80;;;4.40;99.90;;;;;;5054463;28;20183;-53
2023/11/17 05:37:38;;;;;;;0.73;0.70;;;4.40;99.90;;;;;;5057626;28;20543;-60
2023/11/17 05:40:05;;;;;;;1.23;1.13;;;4.40;99.90;;;;;;5056404;28;20179;-60
2023/11/17 05:42:32;;;;;;;0.90;0.90;;;4.40;99.90;;;;;;5063931;28;20432;-60
2023/11/17 05:44:57;;;;;;;1.60;1.50;;;4.40;99.90;;;;;;5061995;28;20436;-61
2023/11/17 05:47:23;;;;;;;41.43;20.23;;;4.30;99.90;;;;;;5063135;28;20502;-59
2023/11/17 05:49:48;;;;;;;76.57;37.13;;;4.30;99.90;;;;;;5063404;28;20170;-59
2023/11/17 05:52:16;;;;;;;3.80;2.77;;;4.30;99.90;;;;;;5065116;28;20180;-60
2023/11/17 05:54:44;;;;;;;2.03;1.77;;;4.30;99.90;;;;;;5065988;28;20169;-59
2023/11/17 05:57:14;;;;;;;1.50;1.40;;;4.30;99.90;;;;;;5060745;28;20425;-59
2023/11/17 05:59:42;;;;;;;3.00;2.13;;;4.30;99.90;;;;;;5063551;28;20895;-59
2023/11/17 06:02:08;;;;;;;1.57;1.47;;;4.30;99.90;;;;;;5064974;28;21022;-60
2023/11/17 06:04:34;;;;;;;1.07;1.07;;;4.30;99.90;;;;;;5067339;28;20401;-60
2023/11/17 06:07:00;;;;;;;1.00;1.00;;;4.30;99.90;;;;;;5059079;28;20445;-58
2023/11/17 06:09:27;;;;;;;1.20;1.20;;;4.30;99.90;;;;;;5063870;28;20495;-60
2023/11/17 06:11:55;;;;;;;1.30;1.20;;;4.30;99.90;;;;;;5048804;28;20441;-58
2023/11/17 06:14:21;;;;;;;2.90;2.10;;;4.30;99.90;;;;;;5044576;28;20520;-59
2023/11/17 06:16:48;;;;;;;1.80;1.70;;;4.30;99.90;;;;;;5063142;28;20447;-59
2023/11/17 06:19:14;;;;;;;1.40;1.30;;;4.30;99.90;;;;;;5057354;28;20548;-60
2023/11/17 06:21:40;;;;;;;1.30;1.30;;;4.30;99.90;;;;;;5057529;28;20439;-59
2023/11/17 06:24:06;;;;;;;1.10;1.10;;;4.30;99.90;;;;;;5066039;28;20447;-58
2023/11/17 06:26:31;;;;;;;1.83;1.50;;;4.30;99.90;;;;;;5062533;28;20577;-60
2023/11/17 06:28:57;;;;;;;1.40;1.27;;;4.30;99.90;;;;;;5066003;28;20708;-59
2023/11/17 06:31:25;;;;;;;1.97;1.30;;;4.30;99.90;;;;;;5069810;28;20178;-60
2023/11/17 06:33:54;;;;;;;1.30;1.30;;;4.30;99.90;;;;;;5066639;28;20167;-58
2023/11/17 06:36:21;;;;;;;1.47;1.37;;;4.30;99.90;;;;;;5068605;28;20431;-60
2023/11/17 06:38:46;;;;;;;1.40;1.30;;;4.30;99.90;;;;;;5068040;28;20444;-60
2023/11/17 06:41:14;;;;;;;1.50;1.40;;;4.30;99.90;;;;;;5063875;28;20441;-59
2023/11/17 06:43:40;;;;;;;1.43;1.33;;;4.30;99.90;;;;;;5067534;28;20179;-59
2023/11/17 06:46:07;;;;;;;1.50;1.40;;;4.40;99.90;;;;;;5065166;28;20423;-59
2023/11/17 06:48:34;;;;;;;1.50;1.40;;;4.40;99.90;;;;;;5067924;28;20437;-59
2023/11/17 06:51:00;;;;;;;2.20;1.47;;;4.40;99.90;;;;;;5069128;28;20424;-58
2023/11/17 06:53:29;;;;;;;1.80;1.70;;;4.40;99.90;;;;;;5068814;28;20458;-60
2023/11/17 06:55:55;;;;;;;1.60;1.50;;;4.40;99.90;;;;;;5062746;28;20183;-60
2023/11/17 06:58:21;;;;;;;1.60;1.50;;;4.40;99.90;;;;;;5063160;28;20449;-58
2023/11/17 07:00:46;;;;;;;2.80;2.53;;;4.40;99.90;;;;;;5067345;28;20442;-59
2023/11/17 07:03:12;;;;;;;2.03;1.70;;;4.40;99.90;;;;;;5063810;28;20182;-58
2023/11/17 07:05:40;;;;;;;1.30;1.20;;;4.40;99.90;;;;;;5064240;28;20227;-59
2023/11/17 07:08:06;;;;;;;1.47;1.37;;;4.30;99.90;;;;;;5066579;28;20616;-57
2023/11/17 07:10:32;;;;;;;1.50;1.40;;;4.30;99.90;;;;;;5061524;28;20441;-58
2023/11/17 07:12:58;;;;;;;1.30;1.23;;;4.30;99.90;;;;;;5064511;28;20431;-56
2023/11/17 07:15:24;;;;;;;1.30;1.20;;;4.30;99.90;;;;;;5060304;28;20440;-56
2023/11/17 07:17:52;;;;;;;1.43;1.33;;;4.30;99.90;;;;;;5068164;28;20623;-60
2023/11/17 07:20:21;;;;;;;1.70;1.60;;;4.30;99.90;;;;;;5062925;28;20570;-60
2023/11/17 07:22:49;;;;;;;1.30;1.20;;;4.20;99.90;;;;;;5067974;28;21129;-61
2023/11/17 07:25:15;;;;;;;6.13;3.57;;;4.20;99.90;;;;;;5067242;28;20424;-60
2023/11/17 07:27:41;;;;;;;1.20;1.20;;;4.20;99.90;;;;;;5069401;28;21059;-60
2023/11/17 07:30:13;;;;;;;1.80;1.70;;;4.20;99.90;;;;;;5061170;28;20478;-59
2023/11/17 07:32:40;;;;;;;3.50;1.93;;;4.20;99.90;;;;;;5068101;28;20405;-60
2023/11/17 07:35:07;;;;;;;2.33;1.93;;;4.20;99.90;;;;;;5070014;28;20442;-59
2023/11/17 07:37:33;;;;;;;2.00;1.90;;;4.20;99.90;;;;;;5068313;28;20483;-59
2023/11/17 07:39:59;;;;;;;1.60;1.50;;;4.20;99.90;;;;;;5065698;28;20428;-60
2023/11/17 07:42:25;;;;;;;3.30;2.30;;;4.20;99.90;;;;;;5064074;28;20425;-60
2023/11/17 07:44:51;;;;;;;2.97;2.00;;;4.20;99.90;;;;;;5062828;28;20467;-60
2023/11/17 07:47:17;;;;;;;4.43;2.13;;;4.20;99.90;;;;;;5065440;28;20201;-60
2023/11/17 07:49:43;;;;;;;1.97;1.83;;;4.20;99.90;;;;;;5069295;28;20167;-59
2023/11/17 07:52:09;;;;;;;1.70;1.60;;;4.20;99.90;;;;;;5065377;28;20417;-60
2023/11/17 07:54:35;;;;;;;2.10;2.00;;;4.30;99.90;;;;;;5061706;28;20501;-59
2023/11/17 07:57:01;;;;;;;2.40;1.67;;;4.30;99.90;;;;;;5059863;28;20922;-59
2023/11/17 07:59:28;;;;;;;1.57;1.47;;;4.30;99.90;;;;;;5065119;28;20473;-60
2023/11/17 08:01:55;;;;;;;1.60;1.30;;;4.30;99.90;;;;;;5066846;28;20432;-60
2023/11/17 08:04:22;;;;;;;1.50;1.40;;;4.30;99.90;;;;;;5057712;28;20548;-59
2023/11/17 08:06:48;;;;;;;1.40;1.30;;;4.30;99.90;;;;;;5065481;28;20464;-60
2023/11/17 08:09:16;;;;;;;1.20;1.20;;;4.30;99.90;;;;;;5063672;28;20449;-60
2023/11/17 08:11:42;;;;;;;1.10;1.10;;;4.30;99.90;;;;;;5061656;28;20170;-60
2023/11/17 08:14:08;;;;;;;1.60;1.50;;;4.30;99.90;;;;;;5061459;28;20436;-60
2023/11/17 08:16:34;;;;;;;6.03;1.20;;;4.40;99.90;;;;;;5069423;28;20225;-58
2023/11/17 08:19:03;;;;;;;1.50;1.40;;;4.40;99.90;;;;;;5065277;28;20527;-56
2023/11/17 08:21:29;;;;;;;1.40;1.30;;;4.40;99.90;;;;;;5068766;28;20955;-58
2023/11/17 08:23:55;;;;;;;1.80;1.20;;;4.40;99.90;;;;;;5063489;28;20436;-56
2023/11/17 08:26:20;;;;;;;3.00;1.37;;;4.40;99.90;;;;;;5065903;28;20467;-58
2023/11/17 08:28:46;;;;;;;1.80;1.70;;;4.50;99.90;;;;;;5066907;28;20202;-60
2023/11/17 08:31:14;;;;;;;1.00;1.00;;;4.50;99.90;;;;;;5065752;28;20182;-60
2023/11/17 08:33:47;;;;;;;1.27;1.17;;;4.50;99.90;;;;;;5066541;28;20179;-60
2023/11/17 08:36:12;;;;;;;1.23;1.13;;;4.50;99.90;;;;;;5066729;28;20448;-60
2023/11/17 08:38:41;;;;;;;1.57;1.47;;;4.60;99.90;;;;;;5066558;28;20452;-59
2023/11/17 08:41:10;;;;;;;1.50;1.30;;;4.60;99.90;;;;;;5066130;28;20585;-60
2023/11/17 08:43:36;;;;;;;1.40;1.30;;;4.60;99.90;;;;;;5067967;28;20419;-61
2023/11/17 08:46:02;;;;;;;1.20;1.17;;;4.60;99.90;;;;;;5065785;28;20920;-59
2023/11/17 08:48:30;;;;;;;2.30;1.37;;;4.60;99.90;;;;;;5067241;28;20475;-61
2023/11/17 08:50:56;;;;;;;1.07;1.00;;;4.60;99.90;;;;;;5060889;28;20550;-59
2023/11/17 08:53:23;;;;;;;1.40;1.30;;;4.70;99.90;;;;;;5064201;28;21012;-60
2023/11/17 08:55:50;;;;;;;1.70;1.60;;;4.70;99.90;;;;;;5059604;28;20517;-59
2023/11/17 08:58:16;;;;;;;2.10;1.80;;;4.70;99.90;;;;;;5063140;28;20457;-60
2023/11/17 09:00:42;;;;;;;1.43;1.30;;;4.70;99.90;;;;;;5062070;28;20535;-60
2023/11/17 09:03:07;;;;;;;1.53;1.40;;;4.70;99.90;;;;;;5066172;28;20179;-58
2023/11/17 09:05:33;;;;;;;2.43;1.33;;;4.70;99.90;;;;;;5064520;28;20282;-59
2023/11/17 09:07:59;;;;;;;1.70;1.60;;;4.70;99.90;;;;;;5059764;28;20216;-60
2023/11/17 09:10:26;;;;;;;2.47;2.20;;;4.70;99.90;;;;;;5062468;28;20182;-59
2023/11/17 09:12:53;;;;;;;1.80;1.70;;;4.70;99.90;;;;;;5061135;28;20186;-60
2023/11/17 09:15:23;;;;;;;1.87;1.77;;;4.70;99.90;;;;;;5063470;28;20444;-59
2023/11/17 09:17:52;;;;;;;3.23;2.10;;;4.70;99.90;;;;;;5057041;28;20449;-58
2023/11/17 09:20:21;;;;;;;5.13;2.23;;;4.70;99.90;;;;;;5061874;28;21178;-59
2023/11/17 09:22:48;;;;;;;3.20;2.20;;;4.70;99.90;;;;;;5063595;28;20515;-59
2023/11/17 09:25:15;;;;;;;4.27;3.03;;;4.80;99.90;;;;;;5064931;28;20436;-59
2023/11/17 09:27:44;;;;;;;3.63;2.40;;;4.80;99.90;;;;;;5063462;28;20522;-60
2023/11/17 09:30:12;;;;;;;4.00;2.60;;;4.80;99.90;;;;;;5061924;28;20433;-60
2023/11/17 09:32:39;;;;;;;2.00;1.80;;;4.90;99.90;;;;;;5059880;28;20437;-60
2023/11/17 09:35:13;;;;;;;3.93;3.17;;;4.90;99.90;;;;;;5066353;28;20440;-60
2023/11/17 09:37:46;;;;;;;4.00;2.43;;;4.90;99.90;;;;;;5058424;28;20559;-60
2023/11/17 09:40:15;;;;;;;6.40;3.40;;;4.90;99.90;;;;;;5066258;28;20440;-60
2023/11/17 09:42:42;;;;;;;2.37;2.00;;;4.80;99.90;;;;;;5062636;28;20443;-59
2023/11/17 09:45:12;;;;;;;4.00;2.57;;;4.80;99.90;;;;;;5062944;28;20428;-60
2023/11/17 09:47:40;;;;;;;3.50;2.57;;;4.80;99.90;;;;;;5061897;28;20491;-60
2023/11/17 09:50:09;;;;;;;2.40;1.90;;;4.80;99.90;;;;;;5067590;28;20434;-59
2023/11/17 09:52:37;;;;;;;2.50;2.10;;;4.80;99.90;;;;;;5064744;28;20408;-59
2023/11/17 09:55:03;;;;;;;1.67;1.40;;;4.80;99.90;;;;;;5063826;28;20453;-59
2023/11/17 09:57:29;;;;;;;2.13;1.93;;;4.80;99.90;;;;;;5065924;28;20473;-60
2023/11/17 09:59:56;;;;;;;1.57;1.40;;;4.80;99.90;;;;;;5065120;28;20419;-60
2023/11/17 10:02:23;;;;;;;1.73;1.57;;;4.80;99.90;;;;;;5062119;28;20437;-60
2023/11/17 10:04:50;;;;;;;2.00;1.63;;;4.90;99.90;;;;;;5064113;28;20469;-59
2023/11/17 10:07:16;;;;;;;1.43;1.33;;;4.90;99.90;;;;;;5063736;28;21146;-60
2023/11/17 10:09:44;;;;;;;6.87;1.50;;;5.00;99.90;;;;;;5062904;28;20570;-60
2023/11/17 10:12:12;;;;;;;1.50;1.30;;;5.00;99.90;;;;;;5064929;28;20562;-60
2023/11/17 10:14:39;;;;;;;1.37;1.27;;;5.00;99.90;;;;;;5063859;28;20436;-61
2023/11/17 10:17:05;;;;;;;1.47;1.27;;;5.00;99.90;;;;;;5066833;28;20429;-60
2023/11/17 10:19:32;;;;;;;1.00;1.00;;;5.00;99.90;;;;;;5064046;28;20417;-60
2023/11/17 10:21:58;;;;;;;1.27;1.20;;;5.10;99.90;;;;;;5064634;28;20447;-60
2023/11/17 10:24:28;;;;;;;1.47;1.30;;;5.00;99.90;;;;;;5059564;28;20467;-60
2023/11/17 10:26:55;;;;;;;1.20;1.10;;;5.00;99.90;;;;;;5065394;28;20465;-60
2023/11/17 10:29:21;;;;;;;1.00;1.00;;;5.00;99.90;;;;;;5066054;28;20436;-59
2023/11/17 10:31:46;;;;;;;0.90;0.90;;;5.10;99.90;;;;;;5062962;28;20966;-59
2023/11/17 10:34:13;;;;;;;1.10;1.00;;;5.20;99.90;;;;;;5062366;28;20278;-60
2023/11/17 10:36:59;;;;;;;1.43;1.03;;;5.30;99.90;;;;;;5065015;28;20183;-60
2023/11/17 10:39:25;;;;;;;2.17;1.10;;;5.30;99.90;;;;;;5059046;28;20456;-60
2023/11/17 10:41:53;;;;;;;1.47;1.00;;;5.40;99.90;;;;;;5063891;28;20436;-59
2023/11/17 10:44:31;;;;;;;0.80;0.80;;;5.50;99.90;;;;;;5065768;28;20766;-60
2023/11/17 10:46:58;;;;;;;1.00;1.00;;;5.60;99.90;;;;;;5064297;28;20456;-60
2023/11/17 10:49:24;;;;;;;1.03;0.97;;;5.60;99.90;;;;;;5064356;28;20440;-60
2023/11/17 10:51:51;;;;;;;0.90;0.90;;;5.60;99.90;;;;;;5064303;28;20429;-60
2023/11/17 10:54:18;;;;;;;0.93;0.90;;;5.60;99.90;;;;;;5064318;28;20271;-60
2023/11/17 10:56:45;;;;;;;0.93;0.93;;;5.60;99.90;;;;;;5062649;28;20494;-60
2023/11/17 10:59:21;;;;;;;0.90;0.90;;;5.60;99.90;;;;;;5064227;28;21161;-60
2023/11/17 11:01:51;;;;;;;1.07;1.07;;;5.60;99.90;;;;;;5063756;28;20424;-60
2023/11/17 11:04:26;;;;;;;0.90;0.90;;;5.60;99.90;;;;;;5064007;28;20440;-59
2023/11/17 11:06:56;;;;;;;1.10;1.00;;;5.60;99.90;;;;;;5065384;28;20954;-60
2023/11/17 11:09:35;;;;;;;3.63;1.20;;;5.70;99.90;;;;;;5063325;28;20525;-59
2023/11/17 11:12:11;;;;;;;1.93;1.37;;;5.70;99.90;;;;;;5064092;28;20447;-59
2023/11/17 11:14:41;;;;;;;1.30;1.20;;;5.70;99.90;;;;;;5059524;28;20503;-60
2023/11/17 11:17:09;;;;;;;1.00;1.00;;;5.70;99.90;;;;;;5069379;28;20465;-60
2023/11/17 11:19:35;;;;;;;1.27;1.07;;;5.70;99.90;;;;;;5067813;28;20428;-59
2023/11/17 11:22:04;;;;;;;1.80;1.70;;;5.70;99.90;;;;;;5065262;28;20574;-60
2023/11/17 11:24:33;;;;;;;2.43;1.20;;;5.70;99.90;;;;;;5065584;28;20228;-59
2023/11/17 11:27:05;;;;;;;1.10;1.10;;;5.70;99.90;;;;;;5061032;28;20468;-60
2023/11/17 11:29:31;;;;;;;1.50;1.40;;;5.70;99.90;;;;;;5067328;28;20893;-59
2023/11/17 11:31:57;;;;;;;1.37;1.20;;;5.60;99.90;;;;;;5067661;28;20833;-60
2023/11/17 11:34:25;;;;;;;1.20;1.10;;;5.60;99.90;;;;;;5063464;28;20441;-61
2023/11/17 11:36:51;;;;;;;3.10;1.20;;;5.60;99.90;;;;;;5069193;28;20504;-59
2023/11/17 11:39:17;;;;;;;1.40;1.30;;;5.60;99.90;;;;;;5064850;28;20444;-60
2023/11/17 11:41:45;;;;;;;3.60;1.47;;;5.50;99.90;;;;;;5062822;28;20448;-60
2023/11/17 11:44:11;;;;;;;1.20;1.10;;;5.50;99.90;;;;;;5068762;28;20173;-60
2023/11/17 11:46:37;;;;;;;1.70;1.60;;;5.50;99.90;;;;;;5066823;28;20475;-59
2023/11/17 11:49:06;;;;;;;1.40;1.30;;;5.50;99.90;;;;;;5066456;28;20978;-57
2023/11/17 11:51:40;;;;;;;2.40;2.00;;;5.50;99.90;;;;;;5062628;28;20163;-60
2023/11/17 11:54:08;;;;;;;1.60;1.47;;;5.50;99.90;;;;;;5062549;28;20516;-60
2023/11/17 11:56:36;;;;;;;1.83;1.70;;;5.50;99.90;;;;;;5066930;28;20436;-59
2023/11/17 11:59:05;;;;;;;1.27;1.17;;;5.50;99.90;;;;;;5068998;28;20445;-60
2023/11/17 12:01:32;;;;;;;1.70;1.60;;;5.60;99.90;;;;;;5064459;28;20940;-59
2023/11/17 12:03:59;;;;;;;1.10;1.10;;;5.60;99.90;;;;;;5069826;28;20921;-60
2023/11/17 12:06:28;;;;;;;1.23;1.17;;;5.60;99.90;;;;;;5063140;28;20973;-60
2023/11/17 12:09:07;;;;;;;1.33;1.00;;;5.60;99.90;;;;;;5064972;28;20452;-58
2023/11/17 12:11:44;;;;;;;2.90;1.97;;;5.60;99.90;;;;;;5066639;28;20413;-60
2023/11/17 12:14:12;;;;;;;1.47;1.10;;;5.50;99.90;;;;;;5065888;28;20489;-60
2023/11/17 12:16:38;;;;;;;1.10;1.00;;;5.50;99.90;;;;;;5066561;28;20429;-61
2023/11/17 12:19:08;;;;;;;2.83;1.20;;;5.50;99.90;;;;;;5059715;28;20844;-61
2023/11/17 12:21:39;;;;;;;1.70;1.60;;;5.60;99.90;;;;;;5068031;28;20201;-61
2023/11/17 12:24:18;;;;;;;2.07;1.53;;;5.60;99.90;;;;;;5064269;28;20996;-61
2023/11/17 12:26:44;;;;;;;1.07;1.00;;;5.60;99.90;;;;;;5067932;28;20449;-60
2023/11/17 12:29:26;;;;;;;3.10;2.17;;;5.60;99.90;;;;;;5065901;28;20941;-60
2023/11/17 12:31:52;;;;;;;2.00;1.80;;;5.60;99.90;;;;;;5064163;28;20431;-59
2023/11/17 12:34:18;;;;;;;5.20;3.80;;;5.60;99.90;;;;;;5059040;28;20951;-59
2023/11/17 12:36:47;;;;;;;1.57;1.17;;;5.60;99.90;;;;;;5062913;28;20428;-59
2023/11/17 12:39:16;;;;;;;1.20;0.90;;;5.50;99.90;;;;;;5066497;28;20479;-60
2023/11/17 12:41:50;;;;;;;1.70;1.60;;;5.60;99.90;;;;;;5065600;28;20433;-61
2023/11/17 12:44:17;;;;;;;1.30;1.20;;;5.50;99.90;;;;;;5065350;28;20425;-60
2023/11/17 12:46:43;;;;;;;1.23;1.13;;;5.50;99.90;;;;;;5062886;28;20463;-61
2023/11/17 12:49:11;;;;;;;1.93;1.50;;;5.50;99.90;;;;;;5063838;28;20432;-60
2023/11/17 12:51:36;;;;;;;1.80;1.47;;;5.50;99.90;;;;;;5061518;28;20492;-60
2023/11/17 12:54:05;;;;;;;1.10;1.10;;;5.50;99.90;;;;;;5065834;28;20492;-61
2023/11/17 12:56:31;;;;;;;1.60;1.50;;;5.40;99.90;;;;;;5060577;28;20590;-60
2023/11/17 12:58:57;;;;;;;1.43;1.33;;;5.40;99.90;;;;;;5061460;28;20445;-61
2023/11/17 13:01:25;;;;;;;2.70;2.30;;;5.40;99.90;;;;;;5062251;28;20955;-59